sensor_id;sensor_type;location;lat;lon;timestamp;P1;durP1;ratioP1;P2;durP2;ratioP2
66523;SDS011;53350;52.210;5.160;2023-06-22T00:00:31;6.40;;;3.63;;
66523;SDS011;53350;52.210;5.160;2023-06-22T00:02:58;6.43;;;3.78;;
66523;SDS011;53350;52.210;5.160;2023-06-22T00:05:24;8.65;;;4.07;;
66523;SDS011;53350;52.210;5.160;2023-06-22T00:07:50;6.57;;;3.85;;
66523;SDS011;53350;52.210;5.160;2023-06-22T00:10:18;7.72;;;4.05;;
66523;SDS011;53350;52.210;5.160;2023-06-22T00:12:45;9.65;;;4.65;;
66523;SDS011;53350;52.210;5.160;2023-06-22T00:15:11;7.63;;;4.38;;
66523;SDS011;53350;52.210;5.160;2023-06-22T00:17:37;8.68;;;4.78;;
66523;SDS011;53350;52.210;5.160;2023-06-22T00:20:04;8.07;;;4.93;;
66523;SDS011;53350;52.210;5.160;2023-06-22T00:22:32;7.35;;;4.20;;
66523;SDS011;53350;52.210;5.160;2023-06-22T00:25:04;9.52;;;4.55;;
66523;SDS011;53350;52.210;5.160;2023-06-22T00:29:59;7.13;;;3.88;;
66523;SDS011;53350;52.210;5.160;2023-06-22T00:32:25;8.15;;;3.80;;
66523;SDS011;53350;52.210;5.160;2023-06-22T00:34:52;7.15;;;4.15;;
66523;SDS011;53350;52.210;5.160;2023-06-22T00:37:18;8.65;;;4.63;;
66523;SDS011;53350;52.210;5.160;2023-06-22T00:39:47;8.70;;;4.70;;
66523;SDS011;53350;52.210;5.160;2023-06-22T00:42:14;9.70;;;5.30;;
66523;SDS011;53350;52.210;5.160;2023-06-22T00:44:42;8.70;;;5.15;;
66523;SDS011;53350;52.210;5.160;2023-06-22T00:47:10;7.68;;;4.70;;
66523;SDS011;53350;52.210;5.160;2023-06-22T00:49:38;8.27;;;5.40;;
66523;SDS011;53350;52.210;5.160;2023-06-22T00:52:05;14.32;;;10.25;;
66523;SDS011;53350;52.210;5.160;2023-06-22T00:54:34;15.32;;;9.20;;
66523;SDS011;53350;52.210;5.160;2023-06-22T00:57:01;11.07;;;8.32;;
66523;SDS011;53350;52.210;5.160;2023-06-22T00:59:28;9.77;;;6.15;;
66523;SDS011;53350;52.210;5.160;2023-06-22T01:01:56;10.43;;;6.88;;
66523;SDS011;53350;52.210;5.160;2023-06-22T01:04:24;10.13;;;6.63;;
66523;SDS011;53350;52.210;5.160;2023-06-22T01:07:00;9.95;;;7.25;;
66523;SDS011;53350;52.210;5.160;2023-06-22T01:09:35;9.90;;;6.90;;
66523;SDS011;53350;52.210;5.160;2023-06-22T01:12:11;14.88;;;8.10;;
66523;SDS011;53350;52.210;5.160;2023-06-22T01:14:39;12.35;;;7.55;;
66523;SDS011;53350;52.210;5.160;2023-06-22T01:17:10;13.10;;;7.35;;
66523;SDS011;53350;52.210;5.160;2023-06-22T01:19:43;11.20;;;7.85;;
66523;SDS011;53350;52.210;5.160;2023-06-22T01:22:13;12.38;;;8.30;;
66523;SDS011;53350;52.210;5.160;2023-06-22T01:24:45;13.75;;;8.95;;
66523;SDS011;53350;52.210;5.160;2023-06-22T01:27:26;11.73;;;7.53;;
66523;SDS011;53350;52.210;5.160;2023-06-22T01:30:02;14.25;;;8.32;;
66523;SDS011;53350;52.210;5.160;2023-06-22T01:32:31;12.18;;;8.55;;
66523;SDS011;53350;52.210;5.160;2023-06-22T01:35:00;13.18;;;8.85;;
66523;SDS011;53350;52.210;5.160;2023-06-22T01:37:29;10.60;;;7.80;;
66523;SDS011;53350;52.210;5.160;2023-06-22T01:39:57;13.20;;;8.68;;
66523;SDS011;53350;52.210;5.160;2023-06-22T01:42:24;15.90;;;9.70;;
66523;SDS011;53350;52.210;5.160;2023-06-22T01:44:51;16.35;;;11.00;;
66523;SDS011;53350;52.210;5.160;2023-06-22T01:47:20;11.50;;;8.63;;
66523;SDS011;53350;52.210;5.160;2023-06-22T01:49:47;16.52;;;10.27;;
66523;SDS011;53350;52.210;5.160;2023-06-22T01:52:16;16.10;;;11.52;;
66523;SDS011;53350;52.210;5.160;2023-06-22T01:54:43;22.77;;;12.97;;
66523;SDS011;53350;52.210;5.160;2023-06-22T01:57:10;20.10;;;12.90;;
66523;SDS011;53350;52.210;5.160;2023-06-22T01:59:37;15.82;;;11.80;;
66523;SDS011;53350;52.210;5.160;2023-06-22T02:02:12;17.65;;;12.40;;
66523;SDS011;53350;52.210;5.160;2023-06-22T02:04:45;17.33;;;12.48;;
66523;SDS011;53350;52.210;5.160;2023-06-22T02:07:15;19.38;;;12.77;;
66523;SDS011;53350;52.210;5.160;2023-06-22T02:09:45;18.38;;;12.90;;
66523;SDS011;53350;52.210;5.160;2023-06-22T02:12:13;15.85;;;11.90;;
66523;SDS011;53350;52.210;5.160;2023-06-22T02:14:43;17.83;;;11.80;;
66523;SDS011;53350;52.210;5.160;2023-06-22T02:17:11;16.65;;;12.73;;
66523;SDS011;53350;52.210;5.160;2023-06-22T02:19:40;14.90;;;12.15;;
66523;SDS011;53350;52.210;5.160;2023-06-22T02:22:08;19.38;;;13.77;;
66523;SDS011;53350;52.210;5.160;2023-06-22T02:27:02;20.23;;;13.10;;
66523;SDS011;53350;52.210;5.160;2023-06-22T02:29:29;22.98;;;14.45;;
66523;SDS011;53350;52.210;5.160;2023-06-22T02:31:55;20.95;;;14.13;;
66523;SDS011;53350;52.210;5.160;2023-06-22T02:34:22;18.50;;;14.35;;
66523;SDS011;53350;52.210;5.160;2023-06-22T02:36:48;19.23;;;14.25;;
66523;SDS011;53350;52.210;5.160;2023-06-22T02:39:18;22.25;;;15.00;;
66523;SDS011;53350;52.210;5.160;2023-06-22T02:41:47;20.15;;;13.80;;
66523;SDS011;53350;52.210;5.160;2023-06-22T02:44:13;18.23;;;14.07;;
66523;SDS011;53350;52.210;5.160;2023-06-22T02:46:40;17.58;;;12.63;;
66523;SDS011;53350;52.210;5.160;2023-06-22T02:49:06;18.75;;;14.18;;
66523;SDS011;53350;52.210;5.160;2023-06-22T02:51:33;19.92;;;14.18;;
66523;SDS011;53350;52.210;5.160;2023-06-22T02:54:00;19.48;;;12.88;;
66523;SDS011;53350;52.210;5.160;2023-06-22T02:56:28;22.05;;;14.70;;
66523;SDS011;53350;52.210;5.160;2023-06-22T02:58:55;18.95;;;14.25;;
66523;SDS011;53350;52.210;5.160;2023-06-22T03:01:26;21.98;;;14.45;;
66523;SDS011;53350;52.210;5.160;2023-06-22T03:03:53;19.50;;;14.40;;
66523;SDS011;53350;52.210;5.160;2023-06-22T03:06:19;24.13;;;14.30;;
66523;SDS011;53350;52.210;5.160;2023-06-22T03:08:48;18.67;;;13.55;;
66523;SDS011;53350;52.210;5.160;2023-06-22T03:11:14;18.35;;;13.32;;
66523;SDS011;53350;52.210;5.160;2023-06-22T03:13:42;19.02;;;13.73;;
66523;SDS011;53350;52.210;5.160;2023-06-22T03:16:10;18.65;;;12.88;;
66523;SDS011;53350;52.210;5.160;2023-06-22T03:18:37;20.77;;;14.20;;
66523;SDS011;53350;52.210;5.160;2023-06-22T03:21:03;21.60;;;14.43;;
66523;SDS011;53350;52.210;5.160;2023-06-22T03:23:30;22.85;;;14.93;;
66523;SDS011;53350;52.210;5.160;2023-06-22T03:25:56;18.70;;;14.35;;
66523;SDS011;53350;52.210;5.160;2023-06-22T03:28:23;18.30;;;13.73;;
66523;SDS011;53350;52.210;5.160;2023-06-22T03:30:50;19.75;;;14.20;;
66523;SDS011;53350;52.210;5.160;2023-06-22T03:33:17;21.45;;;15.27;;
66523;SDS011;53350;52.210;5.160;2023-06-22T03:35:43;20.83;;;14.70;;
66523;SDS011;53350;52.210;5.160;2023-06-22T03:38:10;22.58;;;15.77;;
66523;SDS011;53350;52.210;5.160;2023-06-22T03:40:36;20.58;;;16.02;;
66523;SDS011;53350;52.210;5.160;2023-06-22T03:43:03;24.75;;;16.50;;
66523;SDS011;53350;52.210;5.160;2023-06-22T03:45:29;24.50;;;16.40;;
66523;SDS011;53350;52.210;5.160;2023-06-22T03:47:57;20.17;;;15.82;;
66523;SDS011;53350;52.210;5.160;2023-06-22T03:50:23;23.83;;;15.80;;
66523;SDS011;53350;52.210;5.160;2023-06-22T03:52:50;21.65;;;15.23;;
66523;SDS011;53350;52.210;5.160;2023-06-22T03:55:17;22.80;;;16.67;;
66523;SDS011;53350;52.210;5.160;2023-06-22T03:57:44;20.60;;;14.93;;
66523;SDS011;53350;52.210;5.160;2023-06-22T04:00:10;21.50;;;16.52;;
66523;SDS011;53350;52.210;5.160;2023-06-22T04:02:38;25.15;;;17.48;;
66523;SDS011;53350;52.210;5.160;2023-06-22T04:05:06;21.70;;;16.30;;
66523;SDS011;53350;52.210;5.160;2023-06-22T04:07:32;24.50;;;17.95;;
66523;SDS011;53350;52.210;5.160;2023-06-22T04:09:59;22.23;;;16.48;;
66523;SDS011;53350;52.210;5.160;2023-06-22T04:12:25;23.52;;;17.88;;
66523;SDS011;53350;52.210;5.160;2023-06-22T04:14:52;27.15;;;18.30;;
66523;SDS011;53350;52.210;5.160;2023-06-22T04:17:18;24.60;;;18.05;;
66523;SDS011;53350;52.210;5.160;2023-06-22T04:19:44;26.77;;;18.95;;
66523;SDS011;53350;52.210;5.160;2023-06-22T04:22:12;28.83;;;19.60;;
66523;SDS011;53350;52.210;5.160;2023-06-22T04:24:39;26.15;;;20.25;;
66523;SDS011;53350;52.210;5.160;2023-06-22T04:27:05;25.10;;;19.05;;
66523;SDS011;53350;52.210;5.160;2023-06-22T04:29:31;29.67;;;20.13;;
66523;SDS011;53350;52.210;5.160;2023-06-22T04:31:58;29.70;;;20.73;;
66523;SDS011;53350;52.210;5.160;2023-06-22T04:34:28;27.52;;;20.88;;
66523;SDS011;53350;52.210;5.160;2023-06-22T04:36:55;30.60;;;19.92;;
66523;SDS011;53350;52.210;5.160;2023-06-22T04:39:23;28.85;;;20.42;;
66523;SDS011;53350;52.210;5.160;2023-06-22T04:41:51;28.77;;;22.65;;
66523;SDS011;53350;52.210;5.160;2023-06-22T04:44:18;28.50;;;21.10;;
66523;SDS011;53350;52.210;5.160;2023-06-22T04:46:49;29.10;;;19.63;;
66523;SDS011;53350;52.210;5.160;2023-06-22T04:49:18;27.95;;;20.52;;
66523;SDS011;53350;52.210;5.160;2023-06-22T04:51:45;28.48;;;20.10;;
66523;SDS011;53350;52.210;5.160;2023-06-22T04:54:12;24.17;;;19.50;;
66523;SDS011;53350;52.210;5.160;2023-06-22T04:56:40;27.90;;;20.00;;
66523;SDS011;53350;52.210;5.160;2023-06-22T04:59:06;32.25;;;21.83;;
66523;SDS011;53350;52.210;5.160;2023-06-22T05:01:33;23.98;;;19.70;;
66523;SDS011;53350;52.210;5.160;2023-06-22T05:04:00;27.85;;;20.70;;
66523;SDS011;53350;52.210;5.160;2023-06-22T05:06:27;25.50;;;20.73;;
66523;SDS011;53350;52.210;5.160;2023-06-22T05:08:54;25.13;;;20.10;;
66523;SDS011;53350;52.210;5.160;2023-06-22T05:11:22;27.95;;;20.40;;
66523;SDS011;53350;52.210;5.160;2023-06-22T05:13:50;31.58;;;20.73;;
66523;SDS011;53350;52.210;5.160;2023-06-22T05:16:17;26.60;;;21.10;;
66523;SDS011;53350;52.210;5.160;2023-06-22T05:18:48;27.92;;;21.98;;
66523;SDS011;53350;52.210;5.160;2023-06-22T05:21:15;27.05;;;21.90;;
66523;SDS011;53350;52.210;5.160;2023-06-22T05:23:41;33.67;;;23.45;;
66523;SDS011;53350;52.210;5.160;2023-06-22T05:26:08;29.05;;;22.05;;
66523;SDS011;53350;52.210;5.160;2023-06-22T05:28:35;28.70;;;22.85;;
66523;SDS011;53350;52.210;5.160;2023-06-22T05:31:03;31.27;;;22.30;;
66523;SDS011;53350;52.210;5.160;2023-06-22T05:33:29;31.65;;;24.08;;
66523;SDS011;53350;52.210;5.160;2023-06-22T05:35:55;31.10;;;23.58;;
66523;SDS011;53350;52.210;5.160;2023-06-22T05:38:22;30.38;;;23.55;;
66523;SDS011;53350;52.210;5.160;2023-06-22T05:40:48;29.23;;;22.98;;
66523;SDS011;53350;52.210;5.160;2023-06-22T05:43:15;29.67;;;22.95;;
66523;SDS011;53350;52.210;5.160;2023-06-22T05:45:41;32.40;;;25.67;;
66523;SDS011;53350;52.210;5.160;2023-06-22T05:48:09;33.10;;;25.25;;
66523;SDS011;53350;52.210;5.160;2023-06-22T05:50:36;32.65;;;25.20;;
66523;SDS011;53350;52.210;5.160;2023-06-22T05:53:03;36.65;;;27.38;;
66523;SDS011;53350;52.210;5.160;2023-06-22T05:55:29;34.55;;;26.45;;
66523;SDS011;53350;52.210;5.160;2023-06-22T05:57:55;36.20;;;25.65;;
66523;SDS011;53350;52.210;5.160;2023-06-22T06:00:22;32.83;;;25.92;;
66523;SDS011;53350;52.210;5.160;2023-06-22T06:02:49;35.30;;;27.33;;
66523;SDS011;53350;52.210;5.160;2023-06-22T06:05:16;35.53;;;28.08;;
66523;SDS011;53350;52.210;5.160;2023-06-22T06:07:44;33.25;;;28.02;;
66523;SDS011;53350;52.210;5.160;2023-06-22T06:10:11;34.45;;;27.10;;
66523;SDS011;53350;52.210;5.160;2023-06-22T06:12:38;35.20;;;26.92;;
66523;SDS011;53350;52.210;5.160;2023-06-22T06:15:04;33.78;;;27.13;;
66523;SDS011;53350;52.210;5.160;2023-06-22T06:17:31;35.72;;;27.65;;
66523;SDS011;53350;52.210;5.160;2023-06-22T06:19:58;33.80;;;28.58;;
66523;SDS011;53350;52.210;5.160;2023-06-22T06:22:26;37.50;;;27.03;;
66523;SDS011;53350;52.210;5.160;2023-06-22T06:24:53;31.98;;;24.58;;
66523;SDS011;53350;52.210;5.160;2023-06-22T06:27:19;31.23;;;25.80;;
66523;SDS011;53350;52.210;5.160;2023-06-22T06:29:45;30.85;;;26.08;;
66523;SDS011;53350;52.210;5.160;2023-06-22T06:32:13;33.65;;;26.27;;
66523;SDS011;53350;52.210;5.160;2023-06-22T06:34:40;31.67;;;26.17;;
66523;SDS011;53350;52.210;5.160;2023-06-22T06:37:06;32.80;;;26.35;;
66523;SDS011;53350;52.210;5.160;2023-06-22T06:39:34;33.22;;;26.77;;
66523;SDS011;53350;52.210;5.160;2023-06-22T06:42:00;32.47;;;26.42;;
66523;SDS011;53350;52.210;5.160;2023-06-22T06:44:27;32.05;;;25.10;;
66523;SDS011;53350;52.210;5.160;2023-06-22T06:46:53;27.65;;;23.50;;
66523;SDS011;53350;52.210;5.160;2023-06-22T06:49:20;29.25;;;24.15;;
66523;SDS011;53350;52.210;5.160;2023-06-22T06:51:46;28.33;;;23.80;;
66523;SDS011;53350;52.210;5.160;2023-06-22T06:54:13;31.40;;;23.73;;
66523;SDS011;53350;52.210;5.160;2023-06-22T06:56:41;30.85;;;24.00;;
66523;SDS011;53350;52.210;5.160;2023-06-22T06:59:09;30.67;;;22.88;;
66523;SDS011;53350;52.210;5.160;2023-06-22T07:01:36;33.92;;;24.67;;
66523;SDS011;53350;52.210;5.160;2023-06-22T07:04:02;30.63;;;23.83;;
66523;SDS011;53350;52.210;5.160;2023-06-22T07:06:29;35.53;;;23.23;;
66523;SDS011;53350;52.210;5.160;2023-06-22T07:08:57;27.83;;;21.02;;
66523;SDS011;53350;52.210;5.160;2023-06-22T07:11:23;28.77;;;22.75;;
66523;SDS011;53350;52.210;5.160;2023-06-22T07:13:51;31.60;;;22.85;;
66523;SDS011;53350;52.210;5.160;2023-06-22T07:16:17;27.95;;;22.38;;
66523;SDS011;53350;52.210;5.160;2023-06-22T07:18:44;31.15;;;22.10;;
66523;SDS011;53350;52.210;5.160;2023-06-22T07:21:10;30.17;;;22.70;;
66523;SDS011;53350;52.210;5.160;2023-06-22T07:23:37;29.95;;;22.50;;
66523;SDS011;53350;52.210;5.160;2023-06-22T07:26:03;28.60;;;21.63;;
66523;SDS011;53350;52.210;5.160;2023-06-22T07:28:31;24.45;;;21.48;;
66523;SDS011;53350;52.210;5.160;2023-06-22T07:31:03;26.70;;;21.05;;
66523;SDS011;53350;52.210;5.160;2023-06-22T07:33:29;29.60;;;21.30;;
66523;SDS011;53350;52.210;5.160;2023-06-22T07:35:56;27.40;;;21.25;;
66523;SDS011;53350;52.210;5.160;2023-06-22T07:38:22;27.33;;;22.38;;
66523;SDS011;53350;52.210;5.160;2023-06-22T07:40:49;30.73;;;20.80;;
66523;SDS011;53350;52.210;5.160;2023-06-22T07:43:15;27.85;;;20.80;;
66523;SDS011;53350;52.210;5.160;2023-06-22T07:45:45;26.65;;;21.27;;
66523;SDS011;53350;52.210;5.160;2023-06-22T07:48:19;28.73;;;22.15;;
66523;SDS011;53350;52.210;5.160;2023-06-22T07:50:46;25.35;;;19.95;;
66523;SDS011;53350;52.210;5.160;2023-06-22T07:53:12;28.70;;;23.27;;
66523;SDS011;53350;52.210;5.160;2023-06-22T07:55:39;26.02;;;20.98;;
66523;SDS011;53350;52.210;5.160;2023-06-22T07:58:05;23.77;;;19.98;;
66523;SDS011;53350;52.210;5.160;2023-06-22T08:00:33;24.90;;;19.67;;
66523;SDS011;53350;52.210;5.160;2023-06-22T08:03:00;25.25;;;18.70;;
66523;SDS011;53350;52.210;5.160;2023-06-22T08:05:29;24.85;;;20.02;;
66523;SDS011;53350;52.210;5.160;2023-06-22T08:07:56;27.38;;;22.27;;
66523;SDS011;53350;52.210;5.160;2023-06-22T08:10:22;25.65;;;20.60;;
66523;SDS011;53350;52.210;5.160;2023-06-22T08:12:49;24.90;;;20.42;;
66523;SDS011;53350;52.210;5.160;2023-06-22T08:15:16;23.67;;;18.80;;
66523;SDS011;53350;52.210;5.160;2023-06-22T08:17:43;22.52;;;16.17;;
66523;SDS011;53350;52.210;5.160;2023-06-22T08:20:10;22.30;;;18.63;;
66523;SDS011;53350;52.210;5.160;2023-06-22T08:22:39;20.40;;;16.08;;
66523;SDS011;53350;52.210;5.160;2023-06-22T08:25:06;22.85;;;18.05;;
66523;SDS011;53350;52.210;5.160;2023-06-22T08:27:34;21.10;;;16.58;;
66523;SDS011;53350;52.210;5.160;2023-06-22T08:30:01;21.60;;;16.83;;
66523;SDS011;53350;52.210;5.160;2023-06-22T08:32:28;20.13;;;17.97;;
66523;SDS011;53350;52.210;5.160;2023-06-22T08:34:55;19.60;;;16.52;;
66523;SDS011;53350;52.210;5.160;2023-06-22T08:37:22;22.02;;;17.08;;
66523;SDS011;53350;52.210;5.160;2023-06-22T08:39:56;20.23;;;16.42;;
66523;SDS011;53350;52.210;5.160;2023-06-22T08:44:50;22.88;;;16.08;;
66523;SDS011;53350;52.210;5.160;2023-06-22T08:47:18;20.00;;;15.45;;
66523;SDS011;53350;52.210;5.160;2023-06-22T08:49:45;19.95;;;15.27;;
66523;SDS011;53350;52.210;5.160;2023-06-22T08:52:12;20.15;;;14.52;;
66523;SDS011;53350;52.210;5.160;2023-06-22T08:54:39;20.98;;;16.00;;
66523;SDS011;53350;52.210;5.160;2023-06-22T08:57:06;18.70;;;14.35;;
66523;SDS011;53350;52.210;5.160;2023-06-22T08:59:33;19.70;;;13.50;;
66523;SDS011;53350;52.210;5.160;2023-06-22T09:01:59;16.92;;;13.93;;
66523;SDS011;53350;52.210;5.160;2023-06-22T09:04:26;18.33;;;13.18;;
66523;SDS011;53350;52.210;5.160;2023-06-22T09:06:52;16.30;;;12.93;;
66523;SDS011;53350;52.210;5.160;2023-06-22T09:09:18;17.42;;;13.77;;
66523;SDS011;53350;52.210;5.160;2023-06-22T09:11:47;18.27;;;12.93;;
66523;SDS011;53350;52.210;5.160;2023-06-22T09:14:15;18.83;;;13.57;;
66523;SDS011;53350;52.210;5.160;2023-06-22T09:16:41;21.48;;;13.95;;
66523;SDS011;53350;52.210;5.160;2023-06-22T09:19:08;16.60;;;13.15;;
66523;SDS011;53350;52.210;5.160;2023-06-22T09:21:34;18.90;;;12.60;;
66523;SDS011;53350;52.210;5.160;2023-06-22T09:24:01;14.68;;;10.55;;
66523;SDS011;53350;52.210;5.160;2023-06-22T09:26:27;17.15;;;10.88;;
66523;SDS011;53350;52.210;5.160;2023-06-22T09:28:53;16.45;;;10.18;;
66523;SDS011;53350;52.210;5.160;2023-06-22T09:31:21;16.42;;;10.88;;
66523;SDS011;53350;52.210;5.160;2023-06-22T09:33:50;13.48;;;9.13;;
66523;SDS011;53350;52.210;5.160;2023-06-22T09:36:17;12.05;;;7.72;;
66523;SDS011;53350;52.210;5.160;2023-06-22T09:38:44;14.75;;;8.20;;
66523;SDS011;53350;52.210;5.160;2023-06-22T09:41:10;13.82;;;7.22;;
66523;SDS011;53350;52.210;5.160;2023-06-22T09:43:36;11.93;;;7.25;;
66523;SDS011;53350;52.210;5.160;2023-06-22T09:46:03;9.10;;;6.43;;
66523;SDS011;53350;52.210;5.160;2023-06-22T09:48:31;11.20;;;8.23;;
66523;SDS011;53350;52.210;5.160;2023-06-22T09:50:57;13.30;;;7.88;;
66523;SDS011;53350;52.210;5.160;2023-06-22T09:53:23;11.05;;;7.22;;
66523;SDS011;53350;52.210;5.160;2023-06-22T09:55:50;8.88;;;5.35;;
66523;SDS011;53350;52.210;5.160;2023-06-22T09:58:16;12.88;;;7.28;;
66523;SDS011;53350;52.210;5.160;2023-06-22T10:00:43;10.98;;;7.30;;
66523;SDS011;53350;52.210;5.160;2023-06-22T10:03:09;11.57;;;7.78;;
66523;SDS011;53350;52.210;5.160;2023-06-22T10:05:37;10.27;;;6.03;;
66523;SDS011;53350;52.210;5.160;2023-06-22T10:10:30;11.07;;;7.10;;
66523;SDS011;53350;52.210;5.160;2023-06-22T10:12:57;10.88;;;7.47;;
66523;SDS011;53350;52.210;5.160;2023-06-22T10:15:28;11.38;;;6.55;;
66523;SDS011;53350;52.210;5.160;2023-06-22T10:17:54;10.13;;;7.05;;
66523;SDS011;53350;52.210;5.160;2023-06-22T10:20:21;10.85;;;6.72;;
66523;SDS011;53350;52.210;5.160;2023-06-22T10:22:49;12.05;;;7.97;;
66523;SDS011;53350;52.210;5.160;2023-06-22T10:25:16;11.30;;;7.57;;
66523;SDS011;53350;52.210;5.160;2023-06-22T10:27:42;13.60;;;8.90;;
66523;SDS011;53350;52.210;5.160;2023-06-22T10:30:09;14.10;;;8.13;;
66523;SDS011;53350;52.210;5.160;2023-06-22T10:32:38;14.40;;;7.43;;
66523;SDS011;53350;52.210;5.160;2023-06-22T10:35:05;11.60;;;8.00;;
66523;SDS011;53350;52.210;5.160;2023-06-22T10:37:32;15.20;;;8.93;;
66523;SDS011;53350;52.210;5.160;2023-06-22T10:40:00;13.52;;;9.13;;
66523;SDS011;53350;52.210;5.160;2023-06-22T10:42:26;11.02;;;8.48;;
66523;SDS011;53350;52.210;5.160;2023-06-22T10:44:52;13.70;;;8.48;;
66523;SDS011;53350;52.210;5.160;2023-06-22T10:47:19;10.85;;;7.30;;
66523;SDS011;53350;52.210;5.160;2023-06-22T10:49:45;22.40;;;8.25;;
66523;SDS011;53350;52.210;5.160;2023-06-22T10:52:12;13.20;;;7.65;;
66523;SDS011;53350;52.210;5.160;2023-06-22T10:54:38;12.38;;;7.57;;
66523;SDS011;53350;52.210;5.160;2023-06-22T10:57:06;10.57;;;7.25;;
66523;SDS011;53350;52.210;5.160;2023-06-22T10:59:33;13.52;;;7.70;;
66523;SDS011;53350;52.210;5.160;2023-06-22T11:02:00;11.70;;;7.40;;
66523;SDS011;53350;52.210;5.160;2023-06-22T11:04:27;11.20;;;7.30;;
66523;SDS011;53350;52.210;5.160;2023-06-22T11:06:53;13.25;;;6.55;;
66523;SDS011;53350;52.210;5.160;2023-06-22T11:09:21;11.65;;;7.53;;
66523;SDS011;53350;52.210;5.160;2023-06-22T11:11:47;12.52;;;7.78;;
66523;SDS011;53350;52.210;5.160;2023-06-22T11:14:16;11.73;;;7.55;;
66523;SDS011;53350;52.210;5.160;2023-06-22T11:16:43;12.90;;;7.60;;
66523;SDS011;53350;52.210;5.160;2023-06-22T11:19:09;12.05;;;7.55;;
66523;SDS011;53350;52.210;5.160;2023-06-22T11:21:36;13.52;;;7.78;;
66523;SDS011;53350;52.210;5.160;2023-06-22T11:24:02;14.40;;;8.40;;
66523;SDS011;53350;52.210;5.160;2023-06-22T11:26:28;11.15;;;7.70;;
66523;SDS011;53350;52.210;5.160;2023-06-22T11:28:56;14.30;;;7.20;;
66523;SDS011;53350;52.210;5.160;2023-06-22T11:31:24;13.75;;;7.60;;
66523;SDS011;53350;52.210;5.160;2023-06-22T11:33:51;14.10;;;7.65;;
66523;SDS011;53350;52.210;5.160;2023-06-22T11:36:18;12.05;;;7.72;;
66523;SDS011;53350;52.210;5.160;2023-06-22T11:41:12;12.38;;;7.70;;
66523;SDS011;53350;52.210;5.160;2023-06-22T11:43:38;12.40;;;7.00;;
66523;SDS011;53350;52.210;5.160;2023-06-22T11:46:05;12.93;;;7.78;;
66523;SDS011;53350;52.210;5.160;2023-06-22T11:48:33;12.15;;;7.53;;
66523;SDS011;53350;52.210;5.160;2023-06-22T11:50:59;9.90;;;7.35;;
66523;SDS011;53350;52.210;5.160;2023-06-22T11:53:27;13.13;;;7.30;;
66523;SDS011;53350;52.210;5.160;2023-06-22T11:55:54;13.18;;;8.00;;
66523;SDS011;53350;52.210;5.160;2023-06-22T11:58:21;11.40;;;8.02;;
66523;SDS011;53350;52.210;5.160;2023-06-22T12:00:47;11.93;;;8.45;;
66523;SDS011;53350;52.210;5.160;2023-06-22T12:03:15;11.90;;;8.32;;
66523;SDS011;53350;52.210;5.160;2023-06-22T12:05:43;13.18;;;8.65;;
66523;SDS011;53350;52.210;5.160;2023-06-22T12:08:09;13.05;;;9.20;;
66523;SDS011;53350;52.210;5.160;2023-06-22T12:10:37;16.00;;;9.57;;
66523;SDS011;53350;52.210;5.160;2023-06-22T12:13:03;12.98;;;9.38;;
66523;SDS011;53350;52.210;5.160;2023-06-22T12:15:29;14.93;;;10.38;;
66523;SDS011;53350;52.210;5.160;2023-06-22T12:17:56;15.07;;;10.43;;
66523;SDS011;53350;52.210;5.160;2023-06-22T12:20:22;15.77;;;11.05;;
66523;SDS011;53350;52.210;5.160;2023-06-22T12:22:50;14.45;;;10.40;;
66523;SDS011;53350;52.210;5.160;2023-06-22T12:25:17;16.30;;;11.52;;
66523;SDS011;53350;52.210;5.160;2023-06-22T12:27:44;16.48;;;11.95;;
66523;SDS011;53350;52.210;5.160;2023-06-22T12:30:10;15.38;;;12.07;;
66523;SDS011;53350;52.210;5.160;2023-06-22T12:32:37;16.73;;;12.73;;
66523;SDS011;53350;52.210;5.160;2023-06-22T12:35:03;16.73;;;12.55;;
66523;SDS011;53350;52.210;5.160;2023-06-22T12:37:32;17.05;;;12.48;;
66523;SDS011;53350;52.210;5.160;2023-06-22T12:40:00;19.33;;;12.75;;
66523;SDS011;53350;52.210;5.160;2023-06-22T12:42:26;16.38;;;13.52;;
66523;SDS011;53350;52.210;5.160;2023-06-22T12:44:53;18.33;;;11.60;;
66523;SDS011;53350;52.210;5.160;2023-06-22T12:47:19;16.05;;;11.70;;
66523;SDS011;53350;52.210;5.160;2023-06-22T12:49:46;13.93;;;10.48;;
66523;SDS011;53350;52.210;5.160;2023-06-22T12:52:12;20.48;;;12.23;;
66523;SDS011;53350;52.210;5.160;2023-06-22T12:54:39;17.40;;;12.15;;
66523;SDS011;53350;52.210;5.160;2023-06-22T12:57:06;19.17;;;11.77;;
66523;SDS011;53350;52.210;5.160;2023-06-22T12:59:33;17.40;;;11.65;;
66523;SDS011;53350;52.210;5.160;2023-06-22T13:01:59;12.02;;;10.30;;
66523;SDS011;53350;52.210;5.160;2023-06-22T13:04:26;14.70;;;9.88;;
66523;SDS011;53350;52.210;5.160;2023-06-22T13:06:52;14.60;;;10.45;;
66523;SDS011;53350;52.210;5.160;2023-06-22T13:09:19;14.02;;;8.88;;
66523;SDS011;53350;52.210;5.160;2023-06-22T13:11:45;12.52;;;8.35;;
66523;SDS011;53350;52.210;5.160;2023-06-22T13:14:13;10.75;;;7.28;;
66523;SDS011;53350;52.210;5.160;2023-06-22T13:16:41;10.68;;;7.35;;
66523;SDS011;53350;52.210;5.160;2023-06-22T13:19:07;15.00;;;7.65;;
66523;SDS011;53350;52.210;5.160;2023-06-22T13:21:33;10.63;;;7.65;;
66523;SDS011;53350;52.210;5.160;2023-06-22T13:24:00;13.13;;;8.23;;
66523;SDS011;53350;52.210;5.160;2023-06-22T13:26:27;15.27;;;8.55;;
66523;SDS011;53350;52.210;5.160;2023-06-22T13:28:54;12.80;;;8.20;;
66523;SDS011;53350;52.210;5.160;2023-06-22T13:31:22;11.25;;;7.55;;
66523;SDS011;53350;52.210;5.160;2023-06-22T13:33:48;10.43;;;7.22;;
66523;SDS011;53350;52.210;5.160;2023-06-22T13:36:17;12.98;;;7.90;;
66523;SDS011;53350;52.210;5.160;2023-06-22T13:38:43;13.77;;;8.65;;
66523;SDS011;53350;52.210;5.160;2023-06-22T13:41:10;14.32;;;9.35;;
66523;SDS011;53350;52.210;5.160;2023-06-22T13:43:36;14.45;;;9.15;;
66523;SDS011;53350;52.210;5.160;2023-06-22T13:46:03;11.73;;;8.60;;
66523;SDS011;53350;52.210;5.160;2023-06-22T13:48:30;15.75;;;9.52;;
66523;SDS011;53350;52.210;5.160;2023-06-22T13:50:57;13.80;;;9.23;;
66523;SDS011;53350;52.210;5.160;2023-06-22T13:53:24;15.13;;;9.32;;
66523;SDS011;53350;52.210;5.160;2023-06-22T13:55:51;13.82;;;8.30;;
66523;SDS011;53350;52.210;5.160;2023-06-22T13:58:17;13.32;;;8.88;;
66523;SDS011;53350;52.210;5.160;2023-06-22T14:00:45;13.73;;;8.82;;
66523;SDS011;53350;52.210;5.160;2023-06-22T14:03:11;10.65;;;8.13;;
66523;SDS011;53350;52.210;5.160;2023-06-22T14:05:42;13.88;;;8.50;;
66523;SDS011;53350;52.210;5.160;2023-06-22T14:08:08;15.45;;;8.48;;
66523;SDS011;53350;52.210;5.160;2023-06-22T14:10:35;14.23;;;9.38;;
66523;SDS011;53350;52.210;5.160;2023-06-22T14:13:01;14.95;;;9.68;;
66523;SDS011;53350;52.210;5.160;2023-06-22T14:15:30;12.82;;;9.55;;
66523;SDS011;53350;52.210;5.160;2023-06-22T14:17:57;14.57;;;9.98;;
66523;SDS011;53350;52.210;5.160;2023-06-22T14:20:23;13.05;;;10.00;;
66523;SDS011;53350;52.210;5.160;2023-06-22T14:22:51;15.05;;;10.40;;
66523;SDS011;53350;52.210;5.160;2023-06-22T14:25:17;14.90;;;10.02;;
66523;SDS011;53350;52.210;5.160;2023-06-22T14:27:44;14.68;;;10.77;;
66523;SDS011;53350;52.210;5.160;2023-06-22T14:30:10;13.35;;;10.75;;
66523;SDS011;53350;52.210;5.160;2023-06-22T14:32:37;14.80;;;11.00;;
66523;SDS011;53350;52.210;5.160;2023-06-22T14:35:03;18.50;;;11.35;;
66523;SDS011;53350;52.210;5.160;2023-06-22T14:37:30;14.27;;;11.73;;
66523;SDS011;53350;52.210;5.160;2023-06-22T14:39:58;16.27;;;11.15;;